Time;durP1;ratioP1;P1;durP2;ratioP2;P2;SDS_P1;SDS_P2;PMS_P1;PMS_P2;Temp;Humidity;BMP_temperature;BMP_pressure;BME280_temperature;BME280_humidity;BME280_pressure;Samples;Min_cycle;Max_cycle;Signal;HPM_P1;HPM_P2
2022/04/11 00:00:15;;;;;;;0.60;0.60;;;;;;;2.63;74.04;97251.03;29373;232;63009;-63
2022/04/11 00:00:46;;;;;;;0.60;0.60;;;;;;;2.63;73.80;97246.50;29373;214;63005;-60
2022/04/11 00:01:17;;;;;;;0.60;0.60;;;;;;;2.64;74.00;97250.00;29373;251;63009;-59
2022/04/11 00:01:49;;;;;;;0.60;0.60;;;;;;;2.64;73.75;97248.13;29373;196;63004;-60
2022/04/11 00:02:24;;;;;;;0.55;0.55;;;;;;;2.63;73.67;97243.81;29373;227;63019;-59
2022/04/11 00:02:55;;;;;;;0.60;0.60;;;;;;;2.62;73.68;97255.56;29371;311;64009;-63
2022/04/11 00:03:27;;;;;;;0.60;0.60;;;;;;;2.62;73.74;97250.22;29373;266;63009;-59
2022/04/11 00:03:58;;;;;;;0.60;0.60;;;;;;;2.62;73.77;97244.03;29373;208;63004;-62
2022/04/11 00:04:30;;;;;;;0.60;0.60;;;;;;;2.61;73.49;97243.22;29395;220;63008;-62
2022/04/11 00:05:01;;;;;;;0.60;0.60;;;;;;;2.60;73.60;97246.94;29395;276;63005;-63
2022/04/11 00:05:32;;;;;;;0.60;0.60;;;;;;;2.60;73.57;97252.31;29373;229;63009;-58
2022/04/11 00:06:03;;;;;;;0.50;0.50;;;;;;;2.58;73.57;97243.69;29373;237;63010;-59
2022/04/11 00:06:35;;;;;;;0.60;0.60;;;;;;;2.58;73.60;97246.38;29373;326;63009;-62
2022/04/11 00:07:06;;;;;;;0.60;0.60;;;;;;;2.59;73.91;97249.87;29395;316;63005;-59
2022/04/11 00:07:37;;;;;;;0.60;0.60;;;;;;;2.58;73.82;97242.87;29395;245;63020;-60
2022/04/11 00:08:08;;;;;;;0.60;0.60;;;;;;;2.58;73.87;97249.06;29371;270;64022;-60
2022/04/11 00:08:40;;;;;;;0.60;0.60;;;;;;;2.58;73.68;97249.06;29373;202;63009;-62
2022/04/11 00:09:11;;;;;;;0.57;0.57;;;;;;;2.58;73.64;97243.69;29373;263;63009;-60
2022/04/11 00:09:43;;;;;;;0.60;0.60;;;;;;;2.59;73.59;97242.66;29373;282;63009;-59
2022/04/11 00:10:14;;;;;;;0.60;0.60;;;;;;;2.59;73.73;97244.50;29373;386;63004;-62
2022/04/11 00:10:47;;;;;;;0.60;0.60;;;;;;;2.57;73.62;97242.06;29373;300;63014;-62
2022/04/11 00:11:18;;;;;;;0.60;0.60;;;;;;;2.56;73.72;97236.94;29371;221;64008;-63
2022/04/11 00:11:49;;;;;;;0.50;0.50;;;;;;;2.55;73.62;97238.81;29395;253;63008;-60
2022/04/11 00:12:20;;;;;;;0.60;0.60;;;;;;;2.56;73.67;97240.44;29395;244;63005;-59
2022/04/11 00:12:51;;;;;;;0.60;0.60;;;;;;;2.54;73.79;97241.72;29373;298;63009;-59
2022/04/11 00:13:22;;;;;;;0.60;0.60;;;;;;;2.55;73.56;97240.66;29373;198;63005;-63
2022/04/11 00:13:53;;;;;;;0.60;0.60;;;;;;;2.54;73.52;97237.16;29373;322;63009;-60
2022/04/11 00:14:25;;;;;;;0.60;0.60;;;;;;;2.54;73.65;97241.72;29371;322;64009;-60
2022/04/11 00:14:58;;;;;;;0.60;0.60;;;;;;;2.54;73.75;97242.53;29373;223;63009;-63
2022/04/11 00:15:29;;;;;;;0.60;0.60;;;;;;;2.54;73.38;97239.84;29373;323;63005;-63
2022/04/11 00:16:07;;;;;;;0.60;0.60;;;;;;;2.54;73.60;97241.72;29373;276;63018;-60
2022/04/11 00:16:40;;;;;;;0.60;0.60;;;;;;;2.53;73.69;97245.44;29373;272;63000;-60
2022/04/11 00:17:11;;;;;;;0.60;0.60;;;;;;;2.51;73.59;97245.66;29373;251;63009;-59
2022/04/11 00:17:42;;;;;;;0.60;0.60;;;;;;;2.51;73.81;97236.81;29371;297;64009;-64
2022/04/11 00:18:13;;;;;;;0.60;0.60;;;;;;;2.51;73.92;97239.50;29373;227;63009;-58
2022/04/11 00:18:44;;;;;;;0.60;0.60;;;;;;;2.51;73.83;97243.00;29373;305;63004;-59
2022/04/11 00:19:16;;;;;;;3.10;3.00;;;;;;;2.51;73.71;97237.62;29371;232;64013;-57
2022/04/11 00:19:47;;;;;;;0.60;0.60;;;;;;;2.50;73.79;97241.34;29373;227;63009;-58
2022/04/11 00:20:19;;;;;;;0.60;0.60;;;;;;;2.50;73.64;97241.34;29373;203;63009;-58
2022/04/11 00:20:50;;;;;;;0.60;0.60;;;;;;;2.50;73.78;97240.53;29373;240;63005;-58
2022/04/11 00:21:22;;;;;;;0.70;0.70;;;;;;;2.50;73.88;97246.72;29371;254;64013;-58
2022/04/11 00:21:53;;;;;;;0.60;0.60;;;;;;;2.50;73.69;97238.69;29373;216;63005;-59
2022/04/11 00:22:25;;;;;;;0.77;0.77;;;;;;;2.50;73.86;97241.34;29371;230;64013;-59
2022/04/11 00:22:57;;;;;;;0.60;0.60;;;;;;;2.51;73.72;97243.00;29373;208;63005;-58
2022/04/11 00:23:28;;;;;;;0.60;0.60;;;;;;;2.50;73.92;97236.00;29373;328;63009;-58
2022/04/11 00:24:02;;;;;;;0.60;0.60;;;;;;;2.49;73.98;97242.41;29371;259;64009;-62
2022/04/11 00:24:33;;;;;;;0.60;0.60;;;;;;;2.50;73.89;97240.53;29373;217;63009;-60
2022/04/11 00:25:06;;;;;;;0.60;0.60;;;;;;;2.50;73.82;97241.34;29373;344;63004;-61
2022/04/11 00:25:37;;;;;;;0.60;0.60;;;;;;;2.51;73.66;97237.62;29373;268;63009;-59
2022/04/11 00:26:09;;;;;;;0.60;0.60;;;;;;;2.51;73.54;97245.66;29373;238;63012;-60
2022/04/11 00:26:40;;;;;;;0.60;0.60;;;;;;;2.49;73.87;97239.72;29373;196;63008;-64
2022/04/11 00:27:11;;;;;;;0.60;0.60;;;;;;;2.50;73.73;97244.03;29373;229;63004;-63
2022/04/11 00:27:42;;;;;;;0.55;0.55;;;;;;;2.52;73.82;97239.25;29373;248;63009;-58
2022/04/11 00:28:13;;;;;;;0.60;0.60;;;;;;;2.53;73.72;97240.91;29373;324;63005;-59
2022/04/11 00:28:45;;;;;;;0.70;0.70;;;;;;;2.54;73.68;97241.72;29373;204;63009;-63
2022/04/11 00:29:16;;;;;;;0.60;0.60;;;;;;;2.54;73.65;97239.03;29371;277;64009;-60
2022/04/11 00:29:47;;;;;;;0.60;0.60;;;;;;;2.52;73.74;97236.59;29371;205;64026;-62
2022/04/11 00:30:19;;;;;;;0.60;0.60;;;;;;;2.49;73.66;97234.37;29373;281;63005;-62
2022/04/11 00:30:51;;;;;;;0.60;0.60;;;;;;;2.49;74.07;97234.37;29373;302;63009;-62
2022/04/11 00:31:22;;;;;;;0.60;0.60;;;;;;;2.47;73.77;97239.12;29373;197;63009;-62
2022/04/11 00:31:54;;;;;;;0.70;0.70;;;;;;;2.45;73.95;97235.88;29373;268;63017;-59
2022/04/11 00:32:27;;;;;;;0.65;0.65;;;;;;;2.42;73.96;97233.69;29373;202;63004;-59
2022/04/11 00:32:59;;;;;;;0.70;0.70;;;;;;;2.41;74.05;97229.38;29373;337;63018;-58
2022/04/11 00:33:30;;;;;;;0.70;0.70;;;;;;;2.42;74.18;97241.72;29373;275;63004;-58
2022/04/11 00:34:01;;;;;;;0.60;0.60;;;;;;;2.42;74.24;97241.72;29371;199;64014;-62
2022/04/11 00:34:32;;;;;;;0.60;0.60;;;;;;;2.40;74.03;97235.78;29373;336;63005;-64
2022/04/11 00:35:05;;;;;;;0.60;0.60;;;;;;;2.39;74.01;97233.34;29371;251;64014;-62
2022/04/11 00:35:39;;;;;;;0.82;0.82;;;;;;;2.38;74.56;97242.41;29373;220;63005;-61
2022/04/11 00:36:13;;;;;;;0.55;0.55;;;;;;;2.38;74.27;97231.72;29373;198;63016;-65
2022/04/11 00:36:44;;;;;;;0.60;0.60;;;;;;;2.37;74.43;97233.56;29373;249;63005;-62
2022/04/11 00:37:16;;;;;;;0.60;0.60;;;;;;;2.35;74.52;97225.78;29371;202;64013;-58
2022/04/11 00:37:47;;;;;;;2.87;2.75;;;;;;;2.35;74.54;97235.66;29373;334;63005;-59
2022/04/11 00:38:19;;;;;;;1.15;1.15;;;;;;;2.35;74.77;97233.81;29373;270;63009;-59
2022/04/11 00:38:50;;;;;;;0.68;0.68;;;;;;;2.35;74.52;97232.97;29373;320;63004;-60
2022/04/11 00:39:21;;;;;;;0.60;0.60;;;;;;;2.34;74.61;97236.72;29371;228;64006;-63
2022/04/11 00:39:53;;;;;;;0.70;0.70;;;;;;;2.33;74.59;97235.91;29373;334;63004;-64
2022/04/11 00:40:24;;;;;;;0.60;0.60;;;;;;;2.31;74.75;97232.63;29373;226;63009;-63
2022/04/11 00:40:55;;;;;;;0.60;0.60;;;;;;;2.31;74.49;97237.16;29395;218;63017;-62
2022/04/11 00:41:27;;;;;;;0.60;0.60;;;;;;;2.29;74.81;97233.91;29373;344;63014;-58
2022/04/11 00:42:06;;;;;;;0.60;0.60;;;;;;;2.29;74.94;97231.22;29371;351;64009;-61
2022/04/11 00:42:37;;;;;;;0.60;0.60;;;;;;;2.32;74.43;97233.44;29371;340;64014;-64
2022/04/11 00:43:09;;;;;;;0.60;0.60;;;;;;;2.32;74.40;97228.91;29373;252;63005;-58
2022/04/11 00:43:41;;;;;;;0.60;0.60;;;;;;;2.32;74.57;97226.22;29373;227;63009;-60
2022/04/11 00:44:12;;;;;;;0.60;0.60;;;;;;;2.33;74.59;97235.06;29373;202;63005;-57
2022/04/11 00:44:43;;;;;;;0.60;0.60;;;;;;;2.32;74.47;97230.78;29373;273;63009;-63
2022/04/11 00:45:14;;;;;;;0.60;0.60;;;;;;;2.32;74.37;97230.78;29373;256;63005;-62
2022/04/11 00:45:46;;;;;;;0.60;0.60;;;;;;;2.31;74.52;97221.09;29371;323;64013;-63
2022/04/11 00:46:20;;;;;;;0.60;0.60;;;;;;;2.28;74.50;97221.56;29373;277;63004;-61
2022/04/11 00:46:51;;;;;;;24.17;22.52;;;;;;;2.26;74.56;97229.81;29361;299;66013;-62
2022/04/11 00:47:22;;;;;;;0.60;0.60;;;;;;;2.25;74.72;97225.53;29373;223;63004;-58
2022/04/11 00:47:53;;;;;;;0.60;0.60;;;;;;;2.24;74.83;97226.56;29373;238;63009;-58
2022/04/11 00:48:25;;;;;;;0.60;0.60;;;;;;;2.24;74.85;97221.22;29373;240;63004;-59
2022/04/11 00:48:56;;;;;;;0.60;0.60;;;;;;;2.24;74.79;97223.06;29373;221;63008;-59
2022/04/11 00:49:27;;;;;;;0.60;0.60;;;;;;;2.23;74.71;97221.44;29373;259;63005;-58
2022/04/11 00:50:04;;;;;;;0.60;0.60;;;;;;;2.23;74.94;97224.94;29373;230;63009;-57
2022/04/11 00:50:36;;;;;;;0.60;0.60;;;;;;;2.24;74.80;97220.41;29373;214;63005;-58
2022/04/11 00:51:16;;;;;;;0.60;0.60;;;;;;;2.24;74.85;97220.41;29373;320;63009;-59
2022/04/11 00:51:50;;;;;;;1.55;1.45;;;;;;;2.23;74.80;97218.75;29373;307;63005;-58
2022/04/11 00:52:21;;;;;;;0.60;0.60;;;;;;;2.23;74.80;97216.91;29371;217;64013;-58
2022/04/11 00:52:55;;;;;;;0.60;0.60;;;;;;;2.23;74.71;97219.59;29373;241;63005;-62
2022/04/11 00:53:28;;;;;;;2.55;2.45;;;;;;;2.24;74.70;97220.41;29373;197;63009;-58
2022/04/11 00:54:01;;;;;;;0.60;0.60;;;;;;;2.23;74.73;97221.44;29373;324;63017;-58
2022/04/11 00:54:33;;;;;;;0.60;0.60;;;;;;;2.23;75.09;97216.09;29373;272;63009;-59
2022/04/11 00:55:09;;;;;;;0.60;0.60;;;;;;;2.21;74.99;97215.50;29373;196;63004;-59
2022/04/11 00:55:42;;;;;;;0.70;0.70;;;;;;;2.20;75.02;97219.22;29373;213;63009;-59
2022/04/11 00:56:16;;;;;;;0.70;0.70;;;;;;;2.21;74.94;97215.50;29371;339;63998;-59
2022/04/11 00:56:48;;;;;;;1.25;1.25;;;;;;;2.23;74.81;97213.41;29373;367;63009;-59
2022/04/11 00:57:21;;;;;;;0.60;0.60;;;;;;;2.23;74.58;97210.72;29373;235;63005;-58
2022/04/11 00:57:54;;;;;;;0.60;0.60;;;;;;;2.22;74.90;97217.13;29373;257;63009;-63
2022/04/11 00:58:26;;;;;;;0.60;0.60;;;;;;;2.22;74.80;97209.09;29373;338;63005;-58
2022/04/11 00:59:03;;;;;;;0.60;0.60;;;;;;;2.23;74.69;97208.06;29373;203;63009;-58
2022/04/11 00:59:35;;;;;;;0.60;0.60;;;;;;;2.22;74.82;97206.44;29371;290;64009;-62
2022/04/11 01:00:08;;;;;;;0.60;0.60;;;;;;;2.21;74.86;97210.97;29373;202;63009;-59
2022/04/11 01:00:40;;;;;;;0.60;0.60;;;;;;;2.19;74.64;97204.22;29373;364;63005;-58
2022/04/11 01:01:14;;;;;;;0.60;0.60;;;;;;;2.19;74.81;97209.56;29373;244;63009;-60
2022/04/11 01:01:45;;;;;;;0.60;0.60;;;;;;;2.18;74.64;97205.25;29373;285;63004;-58
2022/04/11 01:02:16;;;;;;;0.60;0.60;;;;;;;2.17;74.92;97207.12;29373;202;63009;-62
2022/04/11 01:02:48;;;;;;;0.60;0.60;;;;;;;2.14;74.67;97204.09;29373;229;63004;-58
2022/04/11 01:03:21;;;;;;;0.60;0.60;;;;;;;2.14;74.82;97214.78;29371;281;64013;-58
2022/04/11 01:03:54;;;;;;;0.60;0.60;;;;;;;2.14;74.93;97209.44;29373;227;63004;-57
2022/04/11 01:04:27;;;;;;;0.60;0.60;;;;;;;2.16;74.90;97208.16;29373;277;63009;-60
2022/04/11 01:04:58;;;;;;;0.60;0.60;;;;;;;2.15;74.83;97201.19;29373;316;63005;-59
2022/04/11 01:05:29;;;;;;;0.60;0.60;;;;;;;2.17;74.93;97206.31;29373;244;63009;-57
2022/04/11 01:06:02;;;;;;;0.68;0.68;;;;;;;2.17;74.57;97207.12;29373;211;63005;-59
2022/04/11 01:06:37;;;;;;;0.70;0.70;;;;;;;2.16;74.89;97208.16;29373;306;63009;-60
2022/04/11 01:07:09;;;;;;;0.60;0.60;;;;;;;2.15;74.80;97205.72;29373;295;63005;-57
2022/04/11 01:07:42;;;;;;;0.60;0.60;;;;;;;2.15;74.96;97205.72;29373;260;63009;-58
2022/04/11 01:08:16;;;;;;;0.60;0.60;;;;;;;2.13;74.74;97208.62;29373;216;63005;-58
2022/04/11 01:08:48;;;;;;;0.60;0.60;;;;;;;2.13;74.99;97210.47;29371;295;64013;-58
2022/04/11 01:09:19;;;;;;;0.60;0.60;;;;;;;2.12;74.83;97211.53;29373;197;63004;-58
2022/04/11 01:09:51;;;;;;;0.60;0.60;;;;;;;2.11;75.04;97213.38;29371;284;64013;-59
2022/04/11 01:10:23;;;;;;;0.60;0.60;;;;;;;2.08;74.73;97210.38;29373;315;63004;-59
2022/04/11 01:10:54;;;;;;;0.60;0.60;;;;;;;2.07;75.19;97214.09;29373;329;63014;-59
2022/04/11 01:11:26;;;;;;;0.70;0.70;;;;;;;2.08;75.14;97210.38;29373;318;63004;-59
2022/04/11 01:11:58;;;;;;;0.60;0.60;;;;;;;2.06;75.25;97210.63;29373;224;63009;-63
2022/04/11 01:12:30;;;;;;;0.60;0.60;;;;;;;2.06;75.15;97209.81;29373;199;63005;-61
2022/04/11 01:13:02;;;;;;;0.60;0.60;;;;;;;2.05;75.42;97211.66;29373;218;63009;-59
2022/04/11 01:13:37;;;;;;;0.60;0.60;;;;;;;2.06;75.28;97209.81;29373;213;63005;-59
2022/04/11 01:14:08;;;;;;;0.60;0.60;;;;;;;2.05;75.27;97210.84;29373;327;63009;-60
2022/04/11 01:14:39;;;;;;;0.60;0.60;;;;;;;2.04;75.24;97211.87;29373;336;63005;-63
2022/04/11 01:15:11;;;;;;;0.60;0.60;;;;;;;2.03;75.24;97216.44;29371;328;64013;-61
2022/04/11 01:16:00;;;;;;;0.70;0.70;;;;;;;2.02;75.45;97206.75;29373;199;63005;-63
2022/04/11 01:16:32;;;;;;;0.60;0.60;;;;;;;2.03;75.47;97210.25;29373;199;63009;-59
2022/04/11 01:17:04;;;;;;;0.60;0.60;;;;;;;2.04;75.42;97204.69;29373;298;63004;-58
2022/04/11 01:17:38;;;;;;;0.60;0.60;;;;;;;2.05;75.33;97210.84;29373;239;63009;-60
2022/04/11 01:18:09;;;;;;;0.60;0.60;;;;;;;2.03;75.17;97215.62;29373;199;63004;-58
2022/04/11 01:18:40;;;;;;;0.60;0.60;;;;;;;2.01;75.34;97211.31;29373;266;63008;-59
2022/04/11 01:19:12;;;;;;;0.60;0.60;;;;;;;2.03;75.38;97212.94;29373;219;63004;-60
2022/04/11 01:19:43;;;;;;;0.60;0.60;;;;;;;2.01;75.45;97215.84;29373;212;63009;-60
2022/04/11 01:20:16;;;;;;;0.60;0.60;;;;;;;2.00;75.41;97212.34;29371;251;64009;-59
2022/04/11 01:20:48;;;;;;;0.60;0.60;;;;;;;2.00;75.39;97214.22;29373;345;63009;-61
2022/04/11 01:21:19;;;;;;;0.60;0.60;;;;;;;2.00;75.62;97215.03;29373;250;63005;-59
2022/04/11 01:21:50;;;;;;;0.60;0.60;;;;;;;2.00;75.54;97215.03;29373;216;63009;-58
2022/04/11 01:22:21;;;;;;;0.60;0.60;;;;;;;2.00;75.47;97220.38;29373;262;63005;-58
2022/04/11 01:22:52;;;;;;;0.60;0.60;;;;;;;1.99;75.69;97216.06;29372;241;64009;-60
2022/04/11 01:23:23;;;;;;;0.60;0.60;;;;;;;1.99;75.58;97213.41;29373;347;63005;-58
2022/04/11 01:23:54;;;;;;;0.60;0.60;;;;;;;1.99;75.71;97213.41;29373;226;63009;-60
2022/04/11 01:24:28;;;;;;;0.60;0.60;;;;;;;1.99;75.56;97217.94;29373;202;63004;-59
2022/04/11 01:25:01;;;;;;;0.60;0.60;;;;;;;2.00;75.70;97217.69;29373;202;63009;-61
2022/04/11 01:25:33;;;;;;;0.70;0.70;;;;;;;2.03;75.75;97207.59;29371;259;64009;-59
2022/04/11 01:26:06;;;;;;;0.60;0.60;;;;;;;2.04;75.55;97211.87;29373;317;63008;-59
2022/04/11 01:26:38;;;;;;;0.60;0.60;;;;;;;2.07;75.39;97211.44;29373;249;63004;-58
2022/04/11 01:27:11;;;;;;;0.60;0.60;;;;;;;2.07;75.18;97209.56;29371;202;64014;-58
2022/04/11 01:27:42;;;;;;;0.60;0.60;;;;;;;2.08;75.10;97213.84;29373;225;63005;-57
2022/04/11 01:28:14;;;;;;;0.60;0.60;;;;;;;2.08;75.03;97213.06;29373;204;63009;-58
2022/04/11 01:28:48;;;;;;;0.60;0.60;;;;;;;2.08;74.97;97210.38;29373;197;63005;-58
2022/04/11 01:29:19;;;;;;;0.60;0.60;;;;;;;2.09;75.14;97214.66;29373;303;63009;-59
2022/04/11 01:29:51;;;;;;;0.60;0.60;;;;;;;2.09;75.03;97212.00;29373;222;63011;-57
2022/04/11 01:30:23;;;;;;;0.60;0.60;;;;;;;2.10;74.96;97208.25;29371;202;64010;-59
2022/04/11 01:30:57;;;;;;;0.60;0.60;;;;;;;2.10;74.92;97208.25;29373;302;63004;-58
2022/04/11 01:31:28;;;;;;;0.60;0.60;;;;;;;2.07;75.07;97203.41;29373;299;63009;-57
2022/04/11 01:32:03;;;;;;;0.60;0.60;;;;;;;2.07;74.96;97204.22;29373;287;63004;-62
2022/04/11 01:32:35;;;;;;;0.60;0.60;;;;;;;2.07;75.10;97208.75;29373;288;63009;-59
2022/04/11 01:33:20;;;;;;;0.60;0.60;;;;;;;2.08;74.93;97202.34;29373;262;63004;-59
2022/04/11 01:33:52;;;;;;;0.68;0.68;;;;;;;2.06;75.17;97199.91;29373;221;63008;-59
2022/04/11 01:34:23;;;;;;;0.60;0.60;;;;;;;2.08;74.85;97199.69;29371;279;64009;-61
2022/04/11 01:34:54;;;;;;;0.60;0.60;;;;;;;2.08;75.14;97202.34;29373;273;63009;-60
2022/04/11 01:35:27;;;;;;;0.60;0.60;;;;;;;2.08;75.04;97199.69;29373;249;63005;-62
2022/04/11 01:35:59;;;;;;;0.60;0.60;;;;;;;2.07;75.00;97198.06;29372;319;63009;-58
2022/04/11 01:36:30;;;;;;;0.60;0.60;;;;;;;2.06;74.99;97196.41;29373;276;63009;-57
2022/04/11 01:37:02;;;;;;;0.60;0.60;;;;;;;2.05;75.07;97200.12;29371;221;64013;-58
2022/04/11 01:37:34;;;;;;;0.60;0.60;;;;;;;2.05;75.04;97200.12;29373;214;63005;-58
2022/04/11 01:38:05;;;;;;;0.60;0.60;;;;;;;2.05;75.06;97200.94;29373;241;63009;-58
2022/04/11 01:38:36;;;;;;;0.60;0.60;;;;;;;2.03;75.01;97197.69;29373;246;63004;-58
2022/04/11 01:39:08;;;;;;;0.60;0.60;;;;;;;2.04;75.21;97203.84;29373;258;63009;-59
2022/04/11 01:39:39;;;;;;;0.60;0.60;;;;;;;2.02;75.25;97204.09;29373;297;63004;-59
2022/04/11 01:40:11;;;;;;;0.60;0.60;;;;;;;2.02;75.34;97201.41;29373;301;63009;-63
2022/04/11 01:40:54;;;;;;;0.60;0.60;;;;;;;2.01;75.15;97200.59;29373;308;63004;-63
2022/04/11 01:41:25;;;;;;;0.60;0.60;;;;;;;2.01;75.32;97200.59;29371;300;64014;-59
2022/04/11 01:41:56;;;;;;;0.60;0.60;;;;;;;2.01;75.13;97195.25;29373;337;63005;-59
2022/04/11 01:42:27;;;;;;;0.60;0.60;;;;;;;2.00;75.15;97192.78;29371;200;64014;-58
2022/04/11 01:42:58;;;;;;;0.60;0.60;;;;;;;2.00;75.04;97203.50;29373;245;63005;-59
2022/04/11 01:43:32;;;;;;;0.70;0.70;;;;;;;1.99;75.35;97197.34;29395;290;63009;-58
2022/04/11 01:44:04;;;;;;;0.60;0.60;;;;;;;1.99;75.15;97207.22;29373;217;63013;-56
2022/04/11 01:44:36;;;;;;;0.60;0.60;;;;;;;1.97;75.25;97199.44;29373;208;63009;-59
2022/04/11 01:45:09;;;;;;;0.70;0.70;;;;;;;1.98;75.34;97197.56;29373;208;63005;-59
2022/04/11 01:45:40;;;;;;;0.70;0.70;;;;;;;1.98;75.36;97195.69;29373;304;63009;-58
2022/04/11 01:46:12;;;;;;;0.62;0.62;;;;;;;1.98;75.31;97194.88;29373;222;63004;-58
2022/04/11 01:46:46;;;;;;;0.60;0.60;;;;;;;1.98;75.59;97200.25;29373;290;63009;-58
2022/04/11 01:47:17;;;;;;;0.60;0.60;;;;;;;1.97;75.43;97198.63;29371;253;64009;-58
2022/04/11 01:47:49;;;;;;;0.60;0.60;;;;;;;1.97;75.44;97199.44;29373;244;63008;-60
2022/04/11 01:48:21;;;;;;;0.60;0.60;;;;;;;1.97;75.47;97203.97;29373;319;63004;-59
2022/04/11 01:48:52;;;;;;;0.60;0.60;;;;;;;1.96;75.61;97195.13;29373;283;63009;-57
2022/04/11 01:49:23;;;;;;;0.60;0.60;;;;;;;1.95;75.40;97196.16;29373;217;63005;-58
2022/04/11 01:49:54;;;;;;;0.60;0.60;;;;;;;1.96;75.68;97196.97;29373;214;63009;-59
2022/04/11 01:50:25;;;;;;;0.60;0.60;;;;;;;1.95;75.43;97196.16;29373;216;63012;-59
2022/04/11 01:50:56;;;;;;;0.60;0.60;;;;;;;1.95;75.59;97198.84;29373;319;63009;-58
2022/04/11 01:51:27;;;;;;;0.60;0.60;;;;;;;1.96;75.73;97197.78;29371;202;64009;-62
2022/04/11 01:51:58;;;;;;;1.15;1.15;;;;;;;1.97;75.49;97199.44;29373;329;63009;-58
2022/04/11 01:52:30;;;;;;;0.60;0.60;;;;;;;1.99;75.41;97196.53;29373;204;63005;-59
2022/04/11 01:53:07;;;;;;;0.60;0.60;;;;;;;1.99;75.36;97194.66;29371;221;64013;-60
2022/04/11 01:53:39;;;;;;;0.85;0.85;;;;;;;1.97;75.33;97194.06;29373;211;63004;-59
2022/04/11 01:54:10;;;;;;;0.60;0.60;;;;;;;1.95;75.45;97185.47;29373;217;63023;-59
2022/04/11 01:54:42;;;;;;;0.60;0.60;;;;;;;1.97;75.56;97194.06;29373;270;63004;-57
2022/04/11 01:55:13;;;;;;;0.60;0.60;;;;;;;1.94;75.71;97189.19;29373;226;63009;-58
2022/04/11 01:55:44;;;;;;;0.60;0.60;;;;;;;1.95;75.76;97190.81;29373;326;63004;-59
2022/04/11 01:56:15;;;;;;;0.60;0.60;;;;;;;1.95;75.66;97185.47;29373;214;63009;-59
2022/04/11 01:56:47;;;;;;;0.60;0.60;;;;;;;1.95;75.58;97188.13;29373;348;63005;-63
2022/04/11 01:57:18;;;;;;;0.60;0.60;;;;;;;1.96;75.46;97184.41;29373;215;63009;-58
2022/04/11 01:57:50;;;;;;;1.77;1.00;;;;;;;1.97;75.55;97188.72;29371;197;64009;-62
2022/04/11 01:58:21;;;;;;;0.60;0.60;;;;;;;1.96;75.66;97184.41;29373;233;63009;-58
2022/04/11 01:58:52;;;;;;;0.60;0.60;;;;;;;1.97;75.64;97186.03;29373;259;63005;-59
2022/04/11 01:59:23;;;;;;;0.60;0.60;;;;;;;1.97;75.53;97194.06;29373;283;63009;-60
2022/04/11 01:59:54;;;;;;;0.60;0.60;;;;;;;1.97;75.42;97188.72;29373;204;63005;-59
2022/04/11 02:00:27;;;;;;;0.60;0.60;;;;;;;1.97;75.56;97188.72;29373;215;63009;-62
2022/04/11 02:01:02;;;;;;;0.60;0.60;;;;;;;1.98;75.47;97190.34;29373;285;63004;-59
2022/04/11 02:01:33;;;;;;;0.60;0.60;;;;;;;1.99;75.38;97191.16;29371;212;64013;-61
2022/04/11 02:02:04;;;;;;;0.60;0.60;;;;;;;2.00;75.53;97188.25;29373;209;63004;-61
2022/04/11 02:02:35;;;;;;;0.60;0.60;;;;;;;1.99;75.43;97196.53;29371;212;64013;-58
2022/04/11 02:03:08;;;;;;;0.60;0.60;;;;;;;1.98;75.52;97190.34;29373;253;63004;-61
2022/04/11 02:03:39;;;;;;;0.70;0.70;;;;;;;2.00;75.47;97193.63;29373;197;63008;-60
2022/04/11 02:04:11;;;;;;;0.60;0.60;;;;;;;1.99;75.32;97188.50;29373;274;63005;-62
2022/04/11 02:04:42;;;;;;;0.57;0.57;;;;;;;1.99;75.41;97186.63;29373;296;63019;-59
2022/04/11 02:05:13;;;;;;;0.60;0.60;;;;;;;1.99;75.62;97183.13;29373;294;63005;-59
2022/04/11 02:05:44;;;;;;;0.60;0.60;;;;;;;1.98;75.49;97184.19;29373;297;63009;-60
2022/04/11 02:06:15;;;;;;;0.60;0.60;;;;;;;1.99;75.35;97191.97;29373;309;63005;-60
2022/04/11 02:06:46;;;;;;;0.60;0.60;;;;;;;1.99;75.49;97191.97;29371;208;64013;-60
2022/04/11 02:07:18;;;;;;;0.60;0.60;;;;;;;1.97;75.52;97186.03;29371;331;64009;-59
2022/04/11 02:07:49;;;;;;;0.60;0.60;;;;;;;1.98;75.49;97190.34;29373;318;63009;-60
2022/04/11 02:08:21;;;;;;;0.60;0.60;;;;;;;1.98;75.40;97187.69;29371;231;64009;-62
2022/04/11 02:08:52;;;;;;;0.60;0.60;;;;;;;1.99;75.57;97178.59;29373;274;63018;-59
2022/04/11 02:09:23;;;;;;;0.60;0.60;;;;;;;1.98;75.43;97185.00;29373;208;63004;-62
2022/04/11 02:09:54;;;;;;;0.60;0.60;;;;;;;1.96;75.33;97180.91;29373;214;63009;-61
2022/04/11 02:10:25;;;;;;;0.65;0.65;;;;;;;1.87;75.61;97180.44;29373;228;63004;-58
2022/04/11 02:10:57;;;;;;;0.60;0.60;;;;;;;1.94;75.55;97189.19;29373;221;63008;-59
2022/04/11 02:11:28;;;;;;;0.62;0.62;;;;;;;1.94;75.51;97185.69;29373;203;63005;-61
2022/04/11 02:11:59;;;;;;;0.60;0.60;;;;;;;1.94;75.74;97189.19;29373;209;63009;-62
2022/04/11 02:12:30;;;;;;;0.60;0.60;;;;;;;1.96;75.43;97184.41;29373;309;63005;-61
2022/04/11 02:13:02;;;;;;;0.60;0.60;;;;;;;1.97;75.45;97183.38;29371;267;64013;-58
2022/04/11 02:13:34;;;;;;;0.70;0.70;;;;;;;1.98;75.30;97179.66;29373;224;63005;-62
2022/04/11 02:14:06;;;;;;;0.60;0.60;;;;;;;1.98;75.35;97178.84;29373;214;63009;-61
2022/04/11 02:14:38;;;;;;;0.60;0.60;;;;;;;1.97;75.17;97178.03;29373;331;63005;-58
2022/04/11 02:15:12;;;;;;;0.70;0.70;;;;;;;1.96;75.37;97173.72;29373;365;63009;-58
2022/04/11 02:15:43;;;;;;;0.60;0.60;;;;;;;1.96;75.30;97171.03;29371;235;64009;-62
2022/04/11 02:16:14;;;;;;;0.60;0.60;;;;;;;1.96;75.63;97176.38;29373;196;63009;-62
2022/04/11 02:16:45;;;;;;;0.62;0.62;;;;;;;1.99;75.20;97173.25;29373;289;63004;-61
2022/04/11 02:17:16;;;;;;;0.70;0.70;;;;;;;2.00;75.31;97179.41;29373;202;63009;-58
2022/04/11 02:17:48;;;;;;;0.60;0.60;;;;;;;2.00;75.11;97174.06;29373;340;63010;-57
2022/04/11 02:18:19;;;;;;;0.60;0.60;;;;;;;1.99;75.04;97175.09;29371;275;64013;-59
2022/04/11 02:18:50;;;;;;;0.60;0.60;;;;;;;1.99;75.28;97175.09;29371;237;64016;-58
2022/04/11 02:19:21;;;;;;;1.98;1.87;;;;;;;2.00;75.06;97172.19;29372;235;63009;-59
2022/04/11 02:19:52;;;;;;;0.60;0.60;;;;;;;1.99;75.05;97162.53;29373;200;63005;-58
2022/04/11 02:20:24;;;;;;;0.60;0.60;;;;;;;2.00;75.07;97169.53;29373;242;63009;-62
2022/04/11 02:20:55;;;;;;;0.60;0.60;;;;;;;2.01;75.00;97168.47;29373;196;63011;-58
2022/04/11 02:21:26;;;;;;;0.70;0.70;;;;;;;2.01;75.08;97163.13;29373;245;63009;-61
2022/04/11 02:22:00;;;;;;;0.60;0.60;;;;;;;2.01;74.80;97167.66;29373;212;63005;-57
2022/04/11 02:22:49;;;;;;;0.60;0.60;;;;;;;2.01;75.10;97157.78;29373;196;63009;-58
2022/04/11 02:23:20;;;;;;;0.70;0.70;;;;;;;2.03;74.75;97159.41;29373;235;63004;-59
2022/04/11 02:23:51;;;;;;;0.60;0.60;;;;;;;2.02;75.04;97158.59;29371;323;64013;-62
2022/04/11 02:24:24;;;;;;;0.60;0.60;;;;;;;2.03;74.99;97156.72;29373;360;63004;-61
2022/04/11 02:24:55;;;;;;;0.70;0.70;;;;;;;2.01;74.96;97156.97;29373;221;63009;-61
2022/04/11 02:25:28;;;;;;;0.60;0.60;;;;;;;2.01;74.81;97160.44;29373;243;63004;-58
2022/04/11 02:25:59;;;;;;;0.95;0.95;;;;;;;2.00;75.07;97161.50;29373;248;63008;-59
2022/04/11 02:26:30;;;;;;;0.70;0.70;;;;;;;1.98;74.94;97155.56;29373;259;63005;-58
2022/04/11 02:27:02;;;;;;;0.60;0.60;;;;;;;1.97;75.32;97153.94;29373;306;63009;-59
2022/04/11 02:27:33;;;;;;;0.70;0.70;;;;;;;1.96;75.35;97154.97;29373;270;63005;-59
2022/04/11 02:28:05;;;;;;;0.80;0.80;;;;;;;1.98;75.15;97158.25;29373;213;63009;-58
2022/04/11 02:28:36;;;;;;;0.60;0.60;;;;;;;2.00;74.81;97156.16;29373;266;63005;-59
2022/04/11 02:29:07;;;;;;;0.60;0.60;;;;;;;2.00;74.87;97153.47;29371;259;64013;-57
2022/04/11 02:29:38;;;;;;;0.60;0.60;;;;;;;2.03;74.72;97154.06;29373;203;63009;-59
2022/04/11 02:30:12;;;;;;;0.60;0.60;;;;;;;2.03;74.87;97152.19;29373;290;63009;-59
2022/04/11 02:30:43;;;;;;;0.60;0.60;;;;;;;2.03;74.81;97154.06;29373;202;63004;-62
2022/04/11 02:31:15;;;;;;;0.60;0.60;;;;;;;2.04;74.92;97155.69;29371;215;64013;-59
2022/04/11 02:31:46;;;;;;;0.70;0.70;;;;;;;2.01;74.78;97152.44;29373;205;63004;-58
2022/04/11 02:32:17;;;;;;;0.60;0.60;;;;;;;2.01;75.07;97155.09;29373;213;63008;-58
2022/04/11 02:32:49;;;;;;;0.60;0.60;;;;;;;2.04;74.86;97155.69;29373;274;63004;-60
2022/04/11 02:33:23;;;;;;;0.60;0.60;;;;;;;2.04;75.00;97150.34;29373;328;63009;-59
2022/04/11 02:33:54;;;;;;;0.60;0.60;;;;;;;2.06;74.60;97148.25;29371;205;64009;-58
2022/04/11 02:34:26;;;;;;;0.60;0.60;;;;;;;2.06;74.59;97151.72;29373;217;63028;-59
2022/04/11 02:34:57;;;;;;;0.60;0.60;;;;;;;2.07;74.45;97152.53;29373;230;63005;-58